METAR AND TAF INFORMATION
METAR FOR ZSPD
ADDS - METARS form results

(2150 UTC 24 October 2021)
Data provider http://aviationweather.gov/metar/data/
 
METAR text: ZSPD 242130Z 34004MPS CAVOK 16/13 Q1023 NOSIG
Conditions at: ZSPD (SHANGHAI/PUDONG , CN) observed 2130 UTC 24 October 2021
Temperature: 16.0°C (61°F)
Dewpoint: 13.0°C (55°F) [RH = 82%]
Pressure (altimeter): 30.21 inches Hg (1023.0 mb)
Winds: from the NNW (340 degrees) at 9 MPH (8 knots; 4.1 m/s)
Visibility: 6 or more miles (10+ km)
Ceiling: ceiling and visibility are OK
Clouds: unknown
Weather: no significant weather observed at this time

METAR text: ZSPD 242100Z 33004MPS CAVOK 16/13 Q1023 NOSIG
Conditions at: ZSPD (SHANGHAI/PUDONG , CN) observed 2100 UTC 24 October 2021
Temperature: 16.0°C (61°F)
Dewpoint: 13.0°C (55°F) [RH = 82%]
Pressure (altimeter): 30.21 inches Hg (1023.0 mb)
Winds: from the NNW (330 degrees) at 9 MPH (8 knots; 4.1 m/s)
Visibility: 6 or more miles (10+ km)
Ceiling: ceiling and visibility are OK
Clouds: unknown
Weather: no significant weather observed at this time

Forecast for: ZSPD (SHANGHAI/PUDONG , CN)
Text: TAF ZSPD 241503Z 2418/2518 02004MPS 6000 BKN020 TX21/2506Z TN14/2420Z
Forecast period: 1800 UTC 24 October 2021 to 1800 UTC 25 October 2021
Forecast type: FROM: standard forecast or significant change
Winds: from the NNE (20 degrees) at 9 MPH (8 knots; 4.1 m/s)
Visibility: 4 miles (6 km)
Ceiling: 2000 feet AGL
Clouds: broken clouds at 2000 feet AGL
Weather: no significant weather forecast for this period

 AIRPORT MAP

 RUNWAY INFORMATION
Runway 16 Runway length 12467 ft Runway width 197 ft
Runway elevation 13 ft Runway displaced threshold 0 ft Runway heading 162
Runway 34 Runway length 12467 ft Runway width 197 ft
Runway elevation 13 ft Runway displaced threshold 0 ft Runway heading 342
Runway 17 Runway length 13123 ft Runway width 197 ft
Runway elevation 10 ft Runway displaced threshold 0 ft Runway heading 162
Runway 35 Runway length 13123 ft Runway width 197 ft
Runway elevation 10 ft Runway displaced threshold 0 ft Runway heading 342

 AIRPORT FREQUENCIES
Type APP Name SHANGHAI A Frequency 119.75 MHZ
Type APP Name SHANGHAI A Frequency 120.3 MHZ
Type APP Name SHAINGHAI Frequency 121.3 MHZ
Type APP Name SHANGHAI A Frequency 123.8 MHZ
Type ATIS Name ATIS Frequency 127.85 MHZ
Type CLD Name DEL Frequency 121.95 MHZ
Type GND Name GND WEST Frequency 121.65 MHZ
Type GND Name GND EAST Frequency 121.8 MHZ
Type TWR Name TWR EAST Frequency 118.4 MHZ
Type TWR Name TWR WEST Frequency 118.8 MHZ

 AIRPORT NEAR NAVIGATION AIDS
Type VOR-DME Name Hengsha Frequency 114400 KHZ
Type VOR-DME Name Nanhui Frequency 114600 KHZ
Type VOR-DME Name Liuzao Frequency 109400 KHZ
Type VOR-DME Name Pudong Frequency 116900 KHZ
Type VOR-DME Name Shuyuan Frequency 113600 KHZ



Powered by Virtual Airlines Manager [v2.6.2]